sensor_id;sensor_type;location;lat;lon;timestamp;P1;durP1;ratioP1;P2;durP2;ratioP2
14961;SDS011;56489;53.166;10.864;2022-10-28T00:00:29;6.22;;;5.43;;
14961;SDS011;56489;53.166;10.864;2022-10-28T00:02:58;6.38;;;5.78;;
14961;SDS011;56489;53.166;10.864;2022-10-28T00:05:27;5.63;;;4.97;;
14961;SDS011;56489;53.166;10.864;2022-10-28T00:07:58;6.47;;;5.15;;
14961;SDS011;56489;53.166;10.864;2022-10-28T00:10:25;6.65;;;5.30;;
14961;SDS011;56489;53.166;10.864;2022-10-28T00:12:52;7.07;;;5.75;;
14961;SDS011;56489;53.166;10.864;2022-10-28T00:15:19;6.65;;;4.97;;
14961;SDS011;56489;53.166;10.864;2022-10-28T00:17:45;4.75;;;4.38;;
14961;SDS011;56489;53.166;10.864;2022-10-28T00:20:12;5.97;;;4.63;;
14961;SDS011;56489;53.166;10.864;2022-10-28T00:22:41;6.50;;;5.88;;
14961;SDS011;56489;53.166;10.864;2022-10-28T00:25:08;7.53;;;4.80;;
14961;SDS011;56489;53.166;10.864;2022-10-28T00:27:35;6.70;;;4.82;;
14961;SDS011;56489;53.166;10.864;2022-10-28T00:30:02;5.82;;;5.22;;
14961;SDS011;56489;53.166;10.864;2022-10-28T00:32:30;7.50;;;5.10;;
14961;SDS011;56489;53.166;10.864;2022-10-28T00:34:57;6.13;;;5.10;;
14961;SDS011;56489;53.166;10.864;2022-10-28T00:37:23;8.20;;;5.22;;
14961;SDS011;56489;53.166;10.864;2022-10-28T00:39:50;5.13;;;4.70;;
14961;SDS011;56489;53.166;10.864;2022-10-28T00:42:18;5.35;;;4.85;;
14961;SDS011;56489;53.166;10.864;2022-10-28T00:44:51;6.07;;;5.18;;
14961;SDS011;56489;53.166;10.864;2022-10-28T00:49:56;4.97;;;4.47;;
14961;SDS011;56489;53.166;10.864;2022-10-28T00:52:28;7.30;;;5.30;;
14961;SDS011;56489;53.166;10.864;2022-10-28T00:54:57;5.72;;;4.63;;
14961;SDS011;56489;53.166;10.864;2022-10-28T00:57:27;5.22;;;4.70;;
14961;SDS011;56489;53.166;10.864;2022-10-28T00:59:59;5.65;;;5.15;;
14961;SDS011;56489;53.166;10.864;2022-10-28T01:02:26;7.82;;;5.28;;
14961;SDS011;56489;53.166;10.864;2022-10-28T01:04:54;8.05;;;5.32;;
14961;SDS011;56489;53.166;10.864;2022-10-28T01:07:21;8.25;;;5.93;;
14961;SDS011;56489;53.166;10.864;2022-10-28T01:09:48;6.80;;;6.10;;
14961;SDS011;56489;53.166;10.864;2022-10-28T01:20:38;6.43;;;5.32;;
14961;SDS011;56489;53.166;10.864;2022-10-28T01:32:05;7.80;;;6.93;;
14961;SDS011;56489;53.166;10.864;2022-10-28T01:34:35;9.82;;;7.53;;
14961;SDS011;56489;53.166;10.864;2022-10-28T01:42:58;9.55;;;6.78;;
14961;SDS011;56489;53.166;10.864;2022-10-28T01:45:33;9.63;;;6.60;;
14961;SDS011;56489;53.166;10.864;2022-10-28T01:48:11;8.13;;;6.38;;
14961;SDS011;56489;53.166;10.864;2022-10-28T01:50:56;8.00;;;6.20;;
14961;SDS011;56489;53.166;10.864;2022-10-28T01:53:30;9.85;;;6.55;;
14961;SDS011;56489;53.166;10.864;2022-10-28T01:56:02;7.03;;;5.97;;
14961;SDS011;56489;53.166;10.864;2022-10-28T01:58:33;7.43;;;5.97;;
14961;SDS011;56489;53.166;10.864;2022-10-28T02:01:03;7.10;;;5.95;;
14961;SDS011;56489;53.166;10.864;2022-10-28T02:03:31;8.23;;;5.25;;
14961;SDS011;56489;53.166;10.864;2022-10-28T02:05:59;8.43;;;5.50;;
14961;SDS011;56489;53.166;10.864;2022-10-28T02:08:49;6.25;;;5.65;;
14961;SDS011;56489;53.166;10.864;2022-10-28T02:11:35;8.50;;;6.60;;
14961;SDS011;56489;53.166;10.864;2022-10-28T02:14:12;6.43;;;5.47;;
14961;SDS011;56489;53.166;10.864;2022-10-28T02:16:58;7.47;;;5.25;;
14961;SDS011;56489;53.166;10.864;2022-10-28T02:22:21;6.40;;;5.38;;
14961;SDS011;56489;53.166;10.864;2022-10-28T02:25:08;7.78;;;5.93;;
14961;SDS011;56489;53.166;10.864;2022-10-28T02:30:20;7.53;;;5.80;;
14961;SDS011;56489;53.166;10.864;2022-10-28T02:33:00;6.50;;;5.47;;
14961;SDS011;56489;53.166;10.864;2022-10-28T02:35:30;5.65;;;5.15;;
14961;SDS011;56489;53.166;10.864;2022-10-28T02:38:11;5.53;;;5.03;;
14961;SDS011;56489;53.166;10.864;2022-10-28T02:40:45;5.80;;;5.30;;
14961;SDS011;56489;53.166;10.864;2022-10-28T02:43:15;5.85;;;5.35;;
14961;SDS011;56489;53.166;10.864;2022-10-28T02:45:45;6.70;;;5.90;;
14961;SDS011;56489;53.166;10.864;2022-10-28T02:48:17;5.40;;;4.88;;
14961;SDS011;56489;53.166;10.864;2022-10-28T02:50:50;7.30;;;5.35;;
14961;SDS011;56489;53.166;10.864;2022-10-28T02:54:19;7.57;;;4.93;;
14961;SDS011;56489;53.166;10.864;2022-10-28T02:56:34;6.82;;;5.05;;
14961;SDS011;56489;53.166;10.864;2022-10-28T02:59:08;5.45;;;4.53;;
14961;SDS011;56489;53.166;10.864;2022-10-28T03:01:36;6.20;;;5.60;;
14961;SDS011;56489;53.166;10.864;2022-10-28T03:04:04;8.52;;;5.47;;
14961;SDS011;56489;53.166;10.864;2022-10-28T03:06:31;6.05;;;5.00;;
14961;SDS011;56489;53.166;10.864;2022-10-28T03:08:58;5.47;;;4.95;;
14961;SDS011;56489;53.166;10.864;2022-10-28T03:11:25;6.38;;;5.45;;
14961;SDS011;56489;53.166;10.864;2022-10-28T03:13:52;6.20;;;5.50;;
14961;SDS011;56489;53.166;10.864;2022-10-28T03:16:18;5.78;;;4.78;;
14961;SDS011;56489;53.166;10.864;2022-10-28T03:18:45;5.78;;;5.07;;
14961;SDS011;56489;53.166;10.864;2022-10-28T03:21:12;4.95;;;4.55;;
14961;SDS011;56489;53.166;10.864;2022-10-28T03:23:39;5.57;;;5.07;;
14961;SDS011;56489;53.166;10.864;2022-10-28T03:26:06;7.05;;;5.15;;
14961;SDS011;56489;53.166;10.864;2022-10-28T03:28:33;5.88;;;5.18;;
14961;SDS011;56489;53.166;10.864;2022-10-28T03:31:00;6.80;;;5.00;;
14961;SDS011;56489;53.166;10.864;2022-10-28T03:33:26;5.10;;;4.60;;
14961;SDS011;56489;53.166;10.864;2022-10-28T03:35:53;5.88;;;4.60;;
14961;SDS011;56489;53.166;10.864;2022-10-28T03:38:20;4.85;;;4.28;;
14961;SDS011;56489;53.166;10.864;2022-10-28T03:40:47;5.38;;;4.70;;
14961;SDS011;56489;53.166;10.864;2022-10-28T03:43:15;5.40;;;4.90;;
14961;SDS011;56489;53.166;10.864;2022-10-28T03:45:42;4.47;;;4.00;;
14961;SDS011;56489;53.166;10.864;2022-10-28T03:48:10;5.25;;;4.75;;
14961;SDS011;56489;53.166;10.864;2022-10-28T03:50:37;7.57;;;5.53;;
14961;SDS011;56489;53.166;10.864;2022-10-28T03:53:04;6.32;;;5.40;;
14961;SDS011;56489;53.166;10.864;2022-10-28T03:55:30;6.95;;;5.80;;
14961;SDS011;56489;53.166;10.864;2022-10-28T03:58:00;6.03;;;4.78;;
14961;SDS011;56489;53.166;10.864;2022-10-28T04:00:27;5.53;;;4.60;;
14961;SDS011;56489;53.166;10.864;2022-10-28T04:02:54;5.35;;;4.75;;
14961;SDS011;56489;53.166;10.864;2022-10-28T04:05:21;6.43;;;5.28;;
14961;SDS011;56489;53.166;10.864;2022-10-28T04:07:48;5.70;;;5.10;;
14961;SDS011;56489;53.166;10.864;2022-10-28T04:10:16;7.03;;;5.60;;
14961;SDS011;56489;53.166;10.864;2022-10-28T04:12:43;7.88;;;5.95;;
14961;SDS011;56489;53.166;10.864;2022-10-28T04:15:10;6.90;;;5.95;;
14961;SDS011;56489;53.166;10.864;2022-10-28T04:17:36;7.68;;;6.25;;
14961;SDS011;56489;53.166;10.864;2022-10-28T04:20:03;7.97;;;7.15;;
14961;SDS011;56489;53.166;10.864;2022-10-28T04:22:30;9.25;;;6.35;;
14961;SDS011;56489;53.166;10.864;2022-10-28T04:24:57;7.63;;;6.90;;
14961;SDS011;56489;53.166;10.864;2022-10-28T04:27:24;8.85;;;7.25;;
14961;SDS011;56489;53.166;10.864;2022-10-28T04:29:51;6.95;;;5.95;;
14961;SDS011;56489;53.166;10.864;2022-10-28T04:32:18;6.80;;;5.85;;
14961;SDS011;56489;53.166;10.864;2022-10-28T04:34:45;8.65;;;6.30;;
14961;SDS011;56489;53.166;10.864;2022-10-28T04:37:12;7.03;;;6.30;;
14961;SDS011;56489;53.166;10.864;2022-10-28T04:39:45;8.50;;;5.88;;
14961;SDS011;56489;53.166;10.864;2022-10-28T04:42:12;6.75;;;5.28;;
14961;SDS011;56489;53.166;10.864;2022-10-28T04:44:39;6.60;;;5.32;;
14961;SDS011;56489;53.166;10.864;2022-10-28T04:47:06;6.93;;;6.30;;
14961;SDS011;56489;53.166;10.864;2022-10-28T04:49:33;6.22;;;5.68;;
14961;SDS011;56489;53.166;10.864;2022-10-28T04:52:03;8.05;;;5.97;;
14961;SDS011;56489;53.166;10.864;2022-10-28T04:54:30;6.25;;;5.57;;
14961;SDS011;56489;53.166;10.864;2022-10-28T04:56:57;7.30;;;5.00;;
14961;SDS011;56489;53.166;10.864;2022-10-28T04:59:24;5.57;;;5.03;;
14961;SDS011;56489;53.166;10.864;2022-10-28T05:01:51;5.68;;;5.18;;
14961;SDS011;56489;53.166;10.864;2022-10-28T05:04:18;6.50;;;5.30;;
14961;SDS011;56489;53.166;10.864;2022-10-28T05:06:45;6.97;;;5.25;;
14961;SDS011;56489;53.166;10.864;2022-10-28T05:09:12;5.82;;;5.22;;
14961;SDS011;56489;53.166;10.864;2022-10-28T05:11:39;8.25;;;5.97;;
14961;SDS011;56489;53.166;10.864;2022-10-28T05:14:06;6.07;;;5.47;;
14961;SDS011;56489;53.166;10.864;2022-10-28T05:16:33;6.45;;;5.80;;
14961;SDS011;56489;53.166;10.864;2022-10-28T05:19:00;8.25;;;5.95;;
14961;SDS011;56489;53.166;10.864;2022-10-28T05:21:27;7.05;;;5.88;;
14961;SDS011;56489;53.166;10.864;2022-10-28T05:23:53;6.60;;;5.57;;
14961;SDS011;56489;53.166;10.864;2022-10-28T05:26:20;8.32;;;5.70;;
14961;SDS011;56489;53.166;10.864;2022-10-28T05:28:50;6.05;;;5.22;;
14961;SDS011;56489;53.166;10.864;2022-10-28T05:31:17;6.05;;;5.15;;
14961;SDS011;56489;53.166;10.864;2022-10-28T05:33:44;5.78;;;5.15;;
14961;SDS011;56489;53.166;10.864;2022-10-28T05:36:10;9.45;;;6.00;;
14961;SDS011;56489;53.166;10.864;2022-10-28T05:38:37;7.45;;;5.47;;
14961;SDS011;56489;53.166;10.864;2022-10-28T05:41:05;6.38;;;5.53;;
14961;SDS011;56489;53.166;10.864;2022-10-28T05:43:32;10.07;;;6.55;;
14961;SDS011;56489;53.166;10.864;2022-10-28T05:45:59;6.45;;;5.65;;
14961;SDS011;56489;53.166;10.864;2022-10-28T05:48:28;6.80;;;5.60;;
14961;SDS011;56489;53.166;10.864;2022-10-28T05:50:54;8.38;;;5.55;;
14961;SDS011;56489;53.166;10.864;2022-10-28T05:53:21;6.97;;;5.57;;
14961;SDS011;56489;53.166;10.864;2022-10-28T05:55:48;5.68;;;5.18;;
14961;SDS011;56489;53.166;10.864;2022-10-28T05:58:15;8.23;;;5.28;;
14961;SDS011;56489;53.166;10.864;2022-10-28T06:00:41;8.25;;;5.43;;
14961;SDS011;56489;53.166;10.864;2022-10-28T06:03:09;5.95;;;5.35;;
14961;SDS011;56489;53.166;10.864;2022-10-28T06:05:43;6.45;;;4.55;;
14961;SDS011;56489;53.166;10.864;2022-10-28T06:08:11;5.15;;;4.60;;
14961;SDS011;56489;53.166;10.864;2022-10-28T06:10:39;6.10;;;4.85;;
14961;SDS011;56489;53.166;10.864;2022-10-28T06:13:06;5.50;;;5.00;;
14961;SDS011;56489;53.166;10.864;2022-10-28T06:15:34;6.88;;;4.95;;
14961;SDS011;56489;53.166;10.864;2022-10-28T06:18:00;6.03;;;5.53;;
14961;SDS011;56489;53.166;10.864;2022-10-28T06:20:27;7.47;;;4.80;;
14961;SDS011;56489;53.166;10.864;2022-10-28T06:22:54;5.97;;;4.97;;
14961;SDS011;56489;53.166;10.864;2022-10-28T06:25:23;6.55;;;5.00;;
14961;SDS011;56489;53.166;10.864;2022-10-28T06:27:52;7.00;;;5.00;;
14961;SDS011;56489;53.166;10.864;2022-10-28T06:30:20;6.35;;;4.70;;
14961;SDS011;56489;53.166;10.864;2022-10-28T06:32:48;5.72;;;4.53;;
14961;SDS011;56489;53.166;10.864;2022-10-28T06:35:14;6.05;;;5.53;;
14961;SDS011;56489;53.166;10.864;2022-10-28T06:37:42;6.82;;;5.13;;
14961;SDS011;56489;53.166;10.864;2022-10-28T06:40:09;5.95;;;5.20;;
14961;SDS011;56489;53.166;10.864;2022-10-28T06:42:36;7.07;;;5.15;;
14961;SDS011;56489;53.166;10.864;2022-10-28T06:45:03;7.55;;;6.00;;
14961;SDS011;56489;53.166;10.864;2022-10-28T06:47:30;7.13;;;4.97;;
14961;SDS011;56489;53.166;10.864;2022-10-28T06:49:57;7.80;;;5.50;;
14961;SDS011;56489;53.166;10.864;2022-10-28T06:52:24;6.47;;;5.38;;
14961;SDS011;56489;53.166;10.864;2022-10-28T06:54:51;5.68;;;5.10;;
14961;SDS011;56489;53.166;10.864;2022-10-28T06:57:17;8.32;;;5.18;;
14961;SDS011;56489;53.166;10.864;2022-10-28T06:59:44;6.80;;;5.10;;
14961;SDS011;56489;53.166;10.864;2022-10-28T07:02:11;6.63;;;4.75;;
14961;SDS011;56489;53.166;10.864;2022-10-28T07:04:38;5.15;;;4.65;;
14961;SDS011;56489;53.166;10.864;2022-10-28T07:07:05;5.20;;;3.88;;
14961;SDS011;56489;53.166;10.864;2022-10-28T07:09:32;8.20;;;4.75;;
14961;SDS011;56489;53.166;10.864;2022-10-28T07:11:58;4.50;;;4.10;;
14961;SDS011;56489;53.166;10.864;2022-10-28T07:14:30;5.13;;;4.63;;
14961;SDS011;56489;53.166;10.864;2022-10-28T07:16:57;6.78;;;4.15;;
14961;SDS011;56489;53.166;10.864;2022-10-28T07:19:23;7.18;;;4.38;;
14961;SDS011;56489;53.166;10.864;2022-10-28T07:21:50;4.82;;;4.05;;
14961;SDS011;56489;53.166;10.864;2022-10-28T07:24:16;5.75;;;4.50;;
14961;SDS011;56489;53.166;10.864;2022-10-28T07:26:45;5.20;;;4.32;;
14961;SDS011;56489;53.166;10.864;2022-10-28T07:29:14;4.45;;;3.88;;
14961;SDS011;56489;53.166;10.864;2022-10-28T07:31:42;5.22;;;4.72;;
14961;SDS011;56489;53.166;10.864;2022-10-28T07:34:09;5.40;;;4.45;;
14961;SDS011;56489;53.166;10.864;2022-10-28T07:36:35;5.32;;;4.05;;
14961;SDS011;56489;53.166;10.864;2022-10-28T07:39:02;6.30;;;4.53;;
14961;SDS011;56489;53.166;10.864;2022-10-28T07:41:29;5.72;;;3.90;;
14961;SDS011;56489;53.166;10.864;2022-10-28T07:43:55;5.28;;;4.53;;
14961;SDS011;56489;53.166;10.864;2022-10-28T07:46:23;5.25;;;4.38;;
14961;SDS011;56489;53.166;10.864;2022-10-28T07:48:49;4.78;;;4.25;;
14961;SDS011;56489;53.166;10.864;2022-10-28T07:51:16;4.65;;;4.20;;
14961;SDS011;56489;53.166;10.864;2022-10-28T07:53:43;6.28;;;4.53;;
14961;SDS011;56489;53.166;10.864;2022-10-28T07:56:10;4.85;;;4.28;;
14961;SDS011;56489;53.166;10.864;2022-10-28T07:58:40;4.82;;;4.13;;
14961;SDS011;56489;53.166;10.864;2022-10-28T08:01:08;5.95;;;4.30;;
14961;SDS011;56489;53.166;10.864;2022-10-28T08:03:37;6.45;;;4.80;;
14961;SDS011;56489;53.166;10.864;2022-10-28T08:06:09;5.40;;;4.70;;
14961;SDS011;56489;53.166;10.864;2022-10-28T08:08:37;5.30;;;4.13;;
14961;SDS011;56489;53.166;10.864;2022-10-28T08:11:23;5.82;;;4.22;;
14961;SDS011;56489;53.166;10.864;2022-10-28T08:13:51;4.13;;;3.83;;
14961;SDS011;56489;53.166;10.864;2022-10-28T08:16:18;6.43;;;4.07;;
14961;SDS011;56489;53.166;10.864;2022-10-28T08:18:45;4.75;;;4.15;;
14961;SDS011;56489;53.166;10.864;2022-10-28T08:21:13;5.28;;;4.60;;
14961;SDS011;56489;53.166;10.864;2022-10-28T08:23:40;6.85;;;4.93;;
14961;SDS011;56489;53.166;10.864;2022-10-28T08:26:12;11.20;;;4.30;;
14961;SDS011;56489;53.166;10.864;2022-10-28T08:28:41;6.07;;;4.40;;
14961;SDS011;56489;53.166;10.864;2022-10-28T08:31:07;4.28;;;3.88;;
14961;SDS011;56489;53.166;10.864;2022-10-28T08:33:36;6.85;;;4.55;;
14961;SDS011;56489;53.166;10.864;2022-10-28T08:36:04;7.68;;;3.72;;
14961;SDS011;56489;53.166;10.864;2022-10-28T08:38:32;7.80;;;3.42;;
14961;SDS011;56489;53.166;10.864;2022-10-28T08:49:22;5.53;;;3.58;;
14961;SDS011;56489;53.166;10.864;2022-10-28T08:51:51;5.53;;;3.50;;
14961;SDS011;56489;53.166;10.864;2022-10-28T08:54:33;5.45;;;3.45;;
14961;SDS011;56489;53.166;10.864;2022-10-28T08:57:05;3.67;;;3.15;;
14961;SDS011;56489;53.166;10.864;2022-10-28T08:59:43;5.25;;;3.33;;
14961;SDS011;56489;53.166;10.864;2022-10-28T09:02:25;5.07;;;3.33;;
14961;SDS011;56489;53.166;10.864;2022-10-28T09:07:45;5.38;;;3.15;;
14961;SDS011;56489;53.166;10.864;2022-10-28T09:10:15;6.85;;;3.20;;
14961;SDS011;56489;53.166;10.864;2022-10-28T09:12:49;7.50;;;2.95;;
14961;SDS011;56489;53.166;10.864;2022-10-28T09:15:33;5.07;;;3.33;;
14961;SDS011;56489;53.166;10.864;2022-10-28T09:18:16;6.38;;;3.15;;
14961;SDS011;56489;53.166;10.864;2022-10-28T09:20:54;5.93;;;3.75;;
14961;SDS011;56489;53.166;10.864;2022-10-28T09:23:23;4.03;;;3.45;;
14961;SDS011;56489;53.166;10.864;2022-10-28T09:31:28;5.60;;;2.85;;
14961;SDS011;56489;53.166;10.864;2022-10-28T09:34:20;5.18;;;3.08;;
14961;SDS011;56489;53.166;10.864;2022-10-28T09:37:18;5.47;;;3.15;;
14961;SDS011;56489;53.166;10.864;2022-10-28T09:39:47;5.25;;;3.20;;
14961;SDS011;56489;53.166;10.864;2022-10-28T09:42:29;4.47;;;3.20;;
14961;SDS011;56489;53.166;10.864;2022-10-28T09:45:13;4.90;;;2.78;;
14961;SDS011;56489;53.166;10.864;2022-10-28T09:47:50;5.38;;;3.17;;
14961;SDS011;56489;53.166;10.864;2022-10-28T09:50:22;5.13;;;2.80;;
14961;SDS011;56489;53.166;10.864;2022-10-28T09:52:59;8.00;;;3.17;;
14961;SDS011;56489;53.166;10.864;2022-10-28T09:55:48;5.60;;;3.60;;
14961;SDS011;56489;53.166;10.864;2022-10-28T09:58:15;4.55;;;2.83;;
14961;SDS011;56489;53.166;10.864;2022-10-28T10:00:44;6.70;;;3.22;;
14961;SDS011;56489;53.166;10.864;2022-10-28T10:03:10;4.53;;;2.90;;
14961;SDS011;56489;53.166;10.864;2022-10-28T10:05:38;7.07;;;3.35;;
14961;SDS011;56489;53.166;10.864;2022-10-28T10:08:10;4.22;;;3.00;;
14961;SDS011;56489;53.166;10.864;2022-10-28T10:10:51;7.53;;;3.42;;
14961;SDS011;56489;53.166;10.864;2022-10-28T10:13:27;4.53;;;2.83;;
14961;SDS011;56489;53.166;10.864;2022-10-28T10:16:03;8.10;;;3.28;;
14961;SDS011;56489;53.166;10.864;2022-10-28T10:18:38;6.40;;;2.90;;
14961;SDS011;56489;53.166;10.864;2022-10-28T10:21:12;4.30;;;2.90;;
14961;SDS011;56489;53.166;10.864;2022-10-28T10:23:40;7.55;;;2.70;;
14961;SDS011;56489;53.166;10.864;2022-10-28T10:26:07;5.53;;;2.92;;
14961;SDS011;56489;53.166;10.864;2022-10-28T10:28:38;6.60;;;3.05;;
14961;SDS011;56489;53.166;10.864;2022-10-28T10:31:20;5.97;;;3.40;;
14961;SDS011;56489;53.166;10.864;2022-10-28T10:33:54;4.10;;;2.72;;
14961;SDS011;56489;53.166;10.864;2022-10-28T10:36:22;4.32;;;3.38;;
14961;SDS011;56489;53.166;10.864;2022-10-28T10:38:58;4.65;;;2.92;;
14961;SDS011;56489;53.166;10.864;2022-10-28T10:41:34;7.55;;;3.10;;
14961;SDS011;56489;53.166;10.864;2022-10-28T10:46:49;7.80;;;3.17;;
14961;SDS011;56489;53.166;10.864;2022-10-28T10:49:38;7.55;;;3.58;;
14961;SDS011;56489;53.166;10.864;2022-10-28T10:52:06;6.35;;;2.90;;
14961;SDS011;56489;53.166;10.864;2022-10-28T10:54:42;6.18;;;2.72;;
14961;SDS011;56489;53.166;10.864;2022-10-28T10:57:21;4.38;;;2.83;;
14961;SDS011;56489;53.166;10.864;2022-10-28T10:59:50;5.63;;;3.38;;
14961;SDS011;56489;53.166;10.864;2022-10-28T11:02:23;7.93;;;3.42;;
14961;SDS011;56489;53.166;10.864;2022-10-28T11:04:55;4.95;;;2.83;;
14961;SDS011;56489;53.166;10.864;2022-10-28T11:07:31;5.05;;;2.75;;
14961;SDS011;56489;53.166;10.864;2022-10-28T11:09:58;8.70;;;3.70;;
14961;SDS011;56489;53.166;10.864;2022-10-28T11:12:28;5.88;;;3.00;;
14961;SDS011;56489;53.166;10.864;2022-10-28T11:14:57;9.40;;;3.08;;
14961;SDS011;56489;53.166;10.864;2022-10-28T11:17:26;5.03;;;2.78;;
14961;SDS011;56489;53.166;10.864;2022-10-28T11:20:17;5.40;;;3.08;;
14961;SDS011;56489;53.166;10.864;2022-10-28T11:22:53;6.50;;;3.38;;
14961;SDS011;56489;53.166;10.864;2022-10-28T11:25:35;4.45;;;2.75;;
14961;SDS011;56489;53.166;10.864;2022-10-28T11:33:11;6.82;;;3.28;;
14961;SDS011;56489;53.166;10.864;2022-10-28T11:36:09;5.47;;;2.80;;
14961;SDS011;56489;53.166;10.864;2022-10-28T11:44:00;4.90;;;2.88;;
14961;SDS011;56489;53.166;10.864;2022-10-28T11:46:45;5.18;;;2.85;;
14961;SDS011;56489;53.166;10.864;2022-10-28T11:55:17;4.88;;;2.85;;
14961;SDS011;56489;53.166;10.864;2022-10-28T11:57:56;6.05;;;3.47;;
14961;SDS011;56489;53.166;10.864;2022-10-28T12:09:43;7.82;;;3.05;;
14961;SDS011;56489;53.166;10.864;2022-10-28T12:12:21;5.25;;;2.92;;
14961;SDS011;56489;53.166;10.864;2022-10-28T12:20:09;6.75;;;3.10;;
14961;SDS011;56489;53.166;10.864;2022-10-28T12:22:56;7.90;;;3.38;;
14961;SDS011;56489;53.166;10.864;2022-10-28T12:25:28;6.93;;;3.50;;
14961;SDS011;56489;53.166;10.864;2022-10-28T12:28:01;4.10;;;3.70;;
14961;SDS011;56489;53.166;10.864;2022-10-28T12:30:33;5.60;;;3.20;;
14961;SDS011;56489;53.166;10.864;2022-10-28T12:33:06;5.45;;;3.30;;
14961;SDS011;56489;53.166;10.864;2022-10-28T12:35:40;4.07;;;2.80;;
14961;SDS011;56489;53.166;10.864;2022-10-28T12:38:22;6.70;;;2.97;;
14961;SDS011;56489;53.166;10.864;2022-10-28T12:43:51;7.15;;;3.58;;
14961;SDS011;56489;53.166;10.864;2022-10-28T12:49:52;5.97;;;3.03;;
14961;SDS011;56489;53.166;10.864;2022-10-28T12:51:56;5.13;;;3.00;;
14961;SDS011;56489;53.166;10.864;2022-10-28T12:54:33;5.15;;;3.15;;
14961;SDS011;56489;53.166;10.864;2022-10-28T12:57:18;5.13;;;3.40;;
14961;SDS011;56489;53.166;10.864;2022-10-28T12:59:58;4.93;;;3.00;;
14961;SDS011;56489;53.166;10.864;2022-10-28T13:02:31;4.28;;;2.90;;
14961;SDS011;56489;53.166;10.864;2022-10-28T13:05:22;6.03;;;3.05;;
14961;SDS011;56489;53.166;10.864;2022-10-28T13:11:02;4.80;;;3.38;;
14961;SDS011;56489;53.166;10.864;2022-10-28T13:13:51;4.57;;;3.47;;
14961;SDS011;56489;53.166;10.864;2022-10-28T13:16:33;4.78;;;3.33;;
14961;SDS011;56489;53.166;10.864;2022-10-28T13:27:59;5.28;;;3.42;;
14961;SDS011;56489;53.166;10.864;2022-10-28T13:30:26;5.18;;;3.45;;
14961;SDS011;56489;53.166;10.864;2022-10-28T13:33:02;4.50;;;3.35;;
14961;SDS011;56489;53.166;10.864;2022-10-28T13:35:31;4.65;;;3.20;;
14961;SDS011;56489;53.166;10.864;2022-10-28T13:37:58;6.63;;;3.15;;
14961;SDS011;56489;53.166;10.864;2022-10-28T13:43:18;4.47;;;3.30;;
14961;SDS011;56489;53.166;10.864;2022-10-28T13:45:48;7.18;;;3.50;;
14961;SDS011;56489;53.166;10.864;2022-10-28T13:56:26;3.88;;;2.83;;
14961;SDS011;56489;53.166;10.864;2022-10-28T14:04:52;5.97;;;3.35;;
14961;SDS011;56489;53.166;10.864;2022-10-28T14:07:25;6.68;;;3.22;;
14961;SDS011;56489;53.166;10.864;2022-10-28T14:09:57;3.80;;;3.00;;
14961;SDS011;56489;53.166;10.864;2022-10-28T14:12:46;4.20;;;3.20;;
14961;SDS011;56489;53.166;10.864;2022-10-28T14:15:33;4.82;;;3.13;;
14961;SDS011;56489;53.166;10.864;2022-10-28T14:21:05;5.75;;;3.78;;
14961;SDS011;56489;53.166;10.864;2022-10-28T14:26:00;4.93;;;2.50;;
14961;SDS011;56489;53.166;10.864;2022-10-28T14:41:58;5.75;;;2.47;;
14961;SDS011;56489;53.166;10.864;2022-10-28T14:47:26;3.25;;;2.60;;
14961;SDS011;56489;53.166;10.864;2022-10-28T14:50:23;4.05;;;3.13;;
14961;SDS011;56489;53.166;10.864;2022-10-28T14:52:57;6.50;;;3.42;;
14961;SDS011;56489;53.166;10.864;2022-10-28T14:55:30;4.15;;;3.45;;
14961;SDS011;56489;53.166;10.864;2022-10-28T15:00:48;4.57;;;3.20;;
14961;SDS011;56489;53.166;10.864;2022-10-28T15:03:31;4.53;;;3.20;;
14961;SDS011;56489;53.166;10.864;2022-10-28T15:06:01;5.75;;;3.25;;
14961;SDS011;56489;53.166;10.864;2022-10-28T15:09:07;5.82;;;3.20;;
14961;SDS011;56489;53.166;10.864;2022-10-28T15:11:44;4.47;;;3.45;;
14961;SDS011;56489;53.166;10.864;2022-10-28T15:14:34;9.38;;;4.35;;
14961;SDS011;56489;53.166;10.864;2022-10-28T15:17:25;5.18;;;3.42;;
14961;SDS011;56489;53.166;10.864;2022-10-28T15:19:55;4.25;;;3.15;;
14961;SDS011;56489;53.166;10.864;2022-10-28T15:22:30;5.90;;;3.40;;
14961;SDS011;56489;53.166;10.864;2022-10-28T15:24:59;5.50;;;3.58;;
14961;SDS011;56489;53.166;10.864;2022-10-28T15:27:29;4.05;;;3.65;;
14961;SDS011;56489;53.166;10.864;2022-10-28T15:29:58;7.75;;;4.32;;
14961;SDS011;56489;53.166;10.864;2022-10-28T15:32:32;5.72;;;3.90;;
14961;SDS011;56489;53.166;10.864;2022-10-28T15:37:57;4.72;;;3.45;;
14961;SDS011;56489;53.166;10.864;2022-10-28T15:42:57;7.70;;;4.88;;
14961;SDS011;56489;53.166;10.864;2022-10-28T15:45:28;14.82;;;10.63;;
14961;SDS011;56489;53.166;10.864;2022-10-28T15:47:57;20.88;;;14.70;;
14961;SDS011;56489;53.166;10.864;2022-10-28T15:50:26;19.02;;;14.30;;
14961;SDS011;56489;53.166;10.864;2022-10-28T15:55:47;10.45;;;8.02;;
14961;SDS011;56489;53.166;10.864;2022-10-28T15:58:35;11.40;;;7.40;;
14961;SDS011;56489;53.166;10.864;2022-10-28T16:01:06;9.63;;;6.40;;
14961;SDS011;56489;53.166;10.864;2022-10-28T16:03:43;7.47;;;6.35;;
14961;SDS011;56489;53.166;10.864;2022-10-28T16:08:59;10.95;;;8.25;;
14961;SDS011;56489;53.166;10.864;2022-10-28T16:11:26;9.50;;;6.70;;
14961;SDS011;56489;53.166;10.864;2022-10-28T16:13:55;9.93;;;6.63;;
14961;SDS011;56489;53.166;10.864;2022-10-28T16:16:23;10.32;;;7.82;;
14961;SDS011;56489;53.166;10.864;2022-10-28T16:21:32;11.13;;;7.43;;
14961;SDS011;56489;53.166;10.864;2022-10-28T16:24:01;8.40;;;6.55;;
14961;SDS011;56489;53.166;10.864;2022-10-28T16:26:29;8.98;;;7.85;;
14961;SDS011;56489;53.166;10.864;2022-10-28T16:28:58;10.40;;;7.20;;
14961;SDS011;56489;53.166;10.864;2022-10-28T16:31:25;9.43;;;7.88;;
14961;SDS011;56489;53.166;10.864;2022-10-28T16:33:53;7.30;;;6.47;;
14961;SDS011;56489;53.166;10.864;2022-10-28T16:36:20;9.57;;;6.47;;
14961;SDS011;56489;53.166;10.864;2022-10-28T16:38:47;9.10;;;5.57;;
14961;SDS011;56489;53.166;10.864;2022-10-28T16:41:15;5.70;;;4.97;;
14961;SDS011;56489;53.166;10.864;2022-10-28T16:43:44;8.25;;;5.63;;
14961;SDS011;56489;53.166;10.864;2022-10-28T16:46:11;8.45;;;5.60;;
14961;SDS011;56489;53.166;10.864;2022-10-28T16:48:39;8.23;;;5.70;;
14961;SDS011;56489;53.166;10.864;2022-10-28T16:51:10;9.68;;;5.32;;
14961;SDS011;56489;53.166;10.864;2022-10-28T16:53:40;6.88;;;5.20;;
14961;SDS011;56489;53.166;10.864;2022-10-28T16:56:13;5.60;;;4.38;;
14961;SDS011;56489;53.166;10.864;2022-10-28T16:58:41;5.95;;;4.82;;
14961;SDS011;56489;53.166;10.864;2022-10-28T17:01:08;5.50;;;4.72;;
14961;SDS011;56489;53.166;10.864;2022-10-28T17:03:36;6.50;;;5.50;;
14961;SDS011;56489;53.166;10.864;2022-10-28T17:06:03;7.05;;;5.97;;
14961;SDS011;56489;53.166;10.864;2022-10-28T17:08:30;11.52;;;5.78;;
14961;SDS011;56489;53.166;10.864;2022-10-28T17:11:16;5.50;;;4.50;;
14961;SDS011;56489;53.166;10.864;2022-10-28T17:13:43;6.40;;;5.47;;
14961;SDS011;56489;53.166;10.864;2022-10-28T17:16:10;6.88;;;4.93;;
14961;SDS011;56489;53.166;10.864;2022-10-28T17:18:37;8.27;;;5.28;;
14961;SDS011;56489;53.166;10.864;2022-10-28T17:21:04;8.98;;;5.20;;
14961;SDS011;56489;53.166;10.864;2022-10-28T17:23:31;11.25;;;5.82;;
14961;SDS011;56489;53.166;10.864;2022-10-28T17:25:59;5.90;;;4.82;;
14961;SDS011;56489;53.166;10.864;2022-10-28T17:28:28;6.25;;;4.47;;
14961;SDS011;56489;53.166;10.864;2022-10-28T17:31:04;6.50;;;4.15;;